createdAt,value
2023-03-08T00:01:23.376Z,100619.41
2023-03-08T00:03:57.764Z,100631.84
2023-03-08T00:06:32.833Z,100640.63
2023-03-08T00:09:03.179Z,100634.66
2023-03-08T00:11:31.180Z,100635.78
2023-03-08T00:13:58.377Z,100630.72
2023-03-08T00:16:25.832Z,100621.09
2023-03-08T00:18:52.918Z,100623.91
2023-03-08T00:21:20.027Z,100617.84
2023-03-08T00:23:47.615Z,100608.09
2023-03-08T00:26:15.103Z,100610.06
2023-03-08T00:28:42.427Z,100610.34
2023-03-08T00:31:12.528Z,100612.31
2023-03-08T00:33:40.628Z,100592.84
2023-03-08T00:36:17.978Z,100594.78
2023-03-08T00:38:46.683Z,100601.41
2023-03-08T00:41:14.962Z,100591.66
2023-03-08T00:43:42.566Z,100584.63
2023-03-08T00:46:10.271Z,100582.22
2023-03-08T00:48:39.160Z,100592.22
2023-03-08T00:51:06.389Z,100598.44
2023-03-08T00:53:33.946Z,100592.34
2023-03-08T00:56:01.474Z,100582.06
2023-03-08T00:58:31.686Z,100581.47
2023-03-08T01:00:59.416Z,100583.44
2023-03-08T01:03:27.989Z,100587.94
2023-03-08T01:05:57.833Z,100586.22
2023-03-08T01:08:28.968Z,100573.84
2023-03-08T01:10:59.413Z,100571.41
2023-03-08T01:13:28.872Z,100582.28
2023-03-08T01:15:56.330Z,100580.84
2023-03-08T01:18:23.665Z,100594.09
2023-03-08T01:21:04.926Z,100587.31
2023-03-08T01:23:33.211Z,100596.63
2023-03-08T01:26:03.013Z,100598.56
2023-03-08T01:28:30.228Z,100590.69
2023-03-08T01:31:08.448Z,100587.41
2023-03-08T01:33:37.630Z,100588.38
2023-03-08T01:36:06.324Z,100591.16
2023-03-08T01:38:33.432Z,100589.00
2023-03-08T01:41:02.475Z,100591.09
2023-03-08T01:43:32.486Z,100587.28
2023-03-08T01:46:12.007Z,100578.41
2023-03-08T01:48:55.484Z,100589.97
2023-03-08T01:51:30.547Z,100581.09
2023-03-08T01:54:00.635Z,100582.91
2023-03-08T01:56:28.260Z,100578.69
2023-03-08T01:58:57.736Z,100565.16
2023-03-08T02:01:24.803Z,100569.09
2023-03-08T02:03:55.038Z,100570.91
2023-03-08T02:06:22.781Z,100566.75
2023-03-08T02:08:49.927Z,100562.53
2023-03-08T02:11:19.439Z,100559.97
2023-03-08T02:13:47.894Z,100552.34
2023-03-08T02:16:16.676Z,100550.31
2023-03-08T02:18:54.429Z,100551.88
2023-03-08T02:21:22.996Z,100558.22
2023-03-08T02:23:50.025Z,100560.19
2023-03-08T02:26:17.332Z,100553.84
2023-03-08T02:28:45.049Z,100552.16
2023-03-08T02:31:38.193Z,100558.75
2023-03-08T02:34:05.492Z,100551.97
2023-03-08T02:36:32.495Z,100550.53
2023-03-08T02:38:59.519Z,100547.84
2023-03-08T02:41:28.601Z,100546.28
2023-03-08T02:43:55.679Z,100544.56
2023-03-08T02:46:22.682Z,100545.94
2023-03-08T02:48:53.031Z,100542.56
2023-03-08T02:51:21.376Z,100530.28
2023-03-08T02:53:48.397Z,100526.03
2023-03-08T02:56:15.455Z,100519.25
2023-03-08T02:58:42.328Z,100508.56
2023-03-08T03:01:13.841Z,100498.84
2023-03-08T03:03:42.114Z,100495.44
2023-03-08T03:06:18.278Z,100498.50
2023-03-08T03:08:48.913Z,100503.00
2023-03-08T03:11:20.059Z,100504.13
2023-03-08T03:13:56.330Z,100502.53
2023-03-08T03:16:26.769Z,100506.91
2023-03-08T03:18:55.291Z,100521.25
2023-03-08T03:21:23.503Z,100532.94
2023-03-08T03:23:51.102Z,100515.59
2023-03-08T03:26:23.316Z,100518.13
2023-03-08T03:28:58.250Z,100513.88
2023-03-08T03:31:28.824Z,100519.50
2023-03-08T03:33:55.849Z,100519.72
2023-03-08T03:36:25.929Z,100505.41
2023-03-08T03:38:53.165Z,100509.91
2023-03-08T03:41:23.022Z,100509.66
2023-03-08T03:43:59.474Z,100509.50
2023-03-08T03:46:26.866Z,100507.81
2023-03-08T03:48:56.549Z,100515.59
2023-03-08T03:51:25.970Z,100505.75
2023-03-08T03:54:07.238Z,100502.44
2023-03-08T03:56:35.305Z,100504.31
2023-03-08T03:59:02.399Z,100494.69
2023-03-08T04:01:32.076Z,100488.25
2023-03-08T04:04:11.747Z,100482.91
2023-03-08T04:06:42.417Z,100483.16
2023-03-08T04:09:15.792Z,100477.56
2023-03-08T04:11:46.329Z,100481.22
2023-03-08T04:14:18.230Z,100479.25
2023-03-08T04:16:45.428Z,100476.56
2023-03-08T04:19:26.156Z,100476.34
2023-03-08T04:21:56.215Z,100463.53
2023-03-08T04:24:26.580Z,100472.41
2023-03-08T04:26:57.706Z,100467.34
2023-03-08T04:29:24.906Z,100474.22
2023-03-08T04:31:51.981Z,100475.34
2023-03-08T04:34:20.393Z,100474.22
2023-03-08T04:36:49.872Z,100464.38
2023-03-08T04:39:17.746Z,100477.63
2023-03-08T04:41:44.780Z,100483.00
2023-03-08T04:44:20.180Z,100484.81
2023-03-08T04:46:50.801Z,100493.34
2023-03-08T04:49:25.433Z,100493.06
2023-03-08T04:51:57.978Z,100488.00
2023-03-08T04:54:25.728Z,100483.50
2023-03-08T04:56:59.424Z,100475.47
2023-03-08T04:59:26.373Z,100480.94
2023-03-08T05:01:56.182Z,100482.38
2023-03-08T05:04:24.298Z,100485.78
2023-03-08T05:06:52.264Z,100483.81
2023-03-08T05:09:23.897Z,100492.84
2023-03-08T05:11:52.514Z,100487.47
2023-03-08T05:14:21.873Z,100487.72
2023-03-08T05:16:49.799Z,100478.47
2023-03-08T05:19:17.165Z,100476.78
2023-03-08T05:21:49.246Z,100473.97
2023-03-08T05:24:16.376Z,100474.56
2023-03-08T05:26:43.385Z,100479.66
2023-03-08T05:29:13.681Z,100469.41
2023-03-08T05:31:42.073Z,100475.22
2023-03-08T05:34:11.402Z,100486.50
2023-03-08T05:36:42.844Z,100476.13
2023-03-08T05:39:11.448Z,100493.63
2023-03-08T05:41:52.481Z,100494.19
2023-03-08T05:44:27.845Z,100484.06
2023-03-08T05:46:55.902Z,100496.22
2023-03-08T05:49:23.198Z,100493.28
2023-03-08T05:51:51.106Z,100499.09
2023-03-08T05:54:19.472Z,100506.84
2023-03-08T05:56:49.047Z,100502.22
2023-03-08T05:59:26.945Z,100509.25
2023-03-08T06:01:57.946Z,100503.63
2023-03-08T06:04:38.800Z,100498.84
2023-03-08T06:07:05.816Z,100499.50
2023-03-08T06:09:37.661Z,100494.97
2023-03-08T06:12:05.982Z,100503.59
2023-03-08T06:14:32.986Z,100504.28
2023-03-08T06:16:59.961Z,100504.03
2023-03-08T06:19:30.281Z,100501.09
2023-03-08T06:21:57.931Z,100514.84
2023-03-08T06:24:25.720Z,100505.84
2023-03-08T06:26:55.708Z,100497.19
2023-03-08T06:29:23.042Z,100503.66
2023-03-08T06:31:50.552Z,100499.03
2023-03-08T06:34:18.172Z,100505.25
2023-03-08T06:36:46.365Z,100501.72
2023-03-08T06:39:13.667Z,100499.75
2023-03-08T06:41:40.774Z,100497.06
2023-03-08T06:44:07.738Z,100501.00
2023-03-08T06:46:34.728Z,100504.53
2023-03-08T06:49:01.813Z,100510.50
2023-03-08T06:51:29.795Z,100516.25
2023-03-08T06:53:57.178Z,100519.78
2023-03-08T06:56:28.183Z,100527.72
2023-03-08T06:58:55.173Z,100521.78
2023-03-08T07:01:22.319Z,100524.34
2023-03-08T07:03:50.259Z,100530.56
2023-03-08T07:06:17.431Z,100533.97
2023-03-08T07:08:44.334Z,100522.66
2023-03-08T07:11:11.737Z,100518.53
2023-03-08T07:13:39.253Z,100531.09
2023-03-08T07:16:08.686Z,100522.25
2023-03-08T07:18:35.939Z,100525.81
2023-03-08T07:21:03.172Z,100532.16
2023-03-08T07:23:30.181Z,100539.31
2023-03-08T07:25:57.108Z,100541.53
2023-03-08T07:28:24.553Z,100542.91
2023-03-08T07:30:53.238Z,100542.34
2023-03-08T07:33:21.394Z,100548.25
2023-03-08T07:35:49.061Z,100546.44
2023-03-08T07:38:16.868Z,100546.13
2023-03-08T07:40:44.401Z,100535.75
2023-03-08T07:43:11.499Z,100538.28
2023-03-08T07:46:05.733Z,100547.91
2023-03-08T07:48:33.186Z,100548.97
2023-03-08T07:51:07.386Z,100558.13
2023-03-08T07:53:35.563Z,100569.56
2023-03-08T07:56:03.163Z,100574.66
2023-03-08T07:58:30.422Z,100577.72
2023-03-08T08:00:57.377Z,100571.19
2023-03-08T08:03:24.651Z,100564.66
2023-03-08T08:05:51.738Z,100578.31
2023-03-08T08:08:18.821Z,100573.31
2023-03-08T08:10:45.761Z,100575.25
2023-03-08T08:13:12.774Z,100571.22
2023-03-08T08:15:39.728Z,100579.34
2023-03-08T08:18:06.811Z,100582.94
2023-03-08T08:20:33.711Z,100586.91
2023-03-08T08:23:00.699Z,100580.88
2023-03-08T08:25:27.668Z,100578.56
2023-03-08T08:27:54.609Z,100579.31
2023-03-08T08:30:21.661Z,100574.28
2023-03-08T08:32:48.725Z,100582.38
2023-03-08T08:35:15.679Z,100593.84
2023-03-08T08:37:42.787Z,100603.69
2023-03-08T08:40:10.696Z,100614.50
2023-03-08T08:42:38.021Z,100599.19
2023-03-08T08:45:05.605Z,100599.72
2023-03-08T08:47:32.496Z,100596.03
2023-03-08T08:49:59.448Z,100598.00
2023-03-08T08:52:26.412Z,100615.09
2023-03-08T08:54:53.647Z,100617.16
2023-03-08T08:57:20.639Z,100617.38
2023-03-08T08:59:48.016Z,100625.50
2023-03-08T09:02:15.257Z,100617.38
2023-03-08T09:04:42.483Z,100615.22
2023-03-08T09:07:09.491Z,100617.53
2023-03-08T09:09:36.562Z,100609.28
2023-03-08T09:12:03.542Z,100602.44
2023-03-08T09:14:30.506Z,100605.00
2023-03-08T09:16:57.525Z,100594.06
2023-03-08T09:19:24.551Z,100603.00
2023-03-08T09:21:51.554Z,100600.59
2023-03-08T09:24:18.523Z,100602.06
2023-03-08T09:26:45.457Z,100603.44
2023-03-08T09:29:12.765Z,100604.34
2023-03-08T09:31:40.505Z,100604.09
2023-03-08T09:34:10.878Z,100607.53
2023-03-08T09:36:39.817Z,100603.09
2023-03-08T09:39:11.320Z,100604.44
2023-03-08T09:41:50.823Z,100614.59
2023-03-08T09:44:32.956Z,100608.56
2023-03-08T09:47:11.522Z,100612.00
2023-03-08T09:49:40.768Z,100617.16
2023-03-08T09:52:38.533Z,100626.53
2023-03-08T09:55:12.583Z,100622.69
2023-03-08T09:57:49.238Z,100609.06
2023-03-08T10:00:26.327Z,100619.28
2023-03-08T10:03:03.301Z,100627.78
2023-03-08T10:05:40.396Z,100616.41
2023-03-08T10:08:31.777Z,100613.09
2023-03-08T10:11:13.643Z,100604.78
2023-03-08T10:13:48.913Z,100598.94
2023-03-08T10:16:40.386Z,100592.69
2023-03-08T10:19:26.872Z,100597.47
2023-03-08T10:21:57.104Z,100598.25
2023-03-08T10:24:37.215Z,100603.47
2023-03-08T10:27:17.132Z,100585.88
2023-03-08T10:29:58.784Z,100589.00
2023-03-08T10:32:27.751Z,100580.19
2023-03-08T10:35:04.844Z,100572.53
2023-03-08T10:37:33.512Z,100571.59
2023-03-08T10:40:05.602Z,100561.56
2023-03-08T10:42:33.540Z,100559.59
2023-03-08T10:45:17.218Z,100552.44
2023-03-08T10:47:57.586Z,100564.13
2023-03-08T10:50:30.632Z,100559.97
2023-03-08T10:53:14.873Z,100559.72
2023-03-08T10:55:50.360Z,100555.25
2023-03-08T10:58:35.151Z,100559.78
2023-03-08T11:01:06.437Z,100557.91
2023-03-08T11:03:33.934Z,100559.34
2023-03-08T11:06:03.870Z,100560.00
2023-03-08T11:08:34.462Z,100558.59
2023-03-08T11:11:13.038Z,100558.91
2023-03-08T11:13:42.164Z,100551.72
2023-03-08T11:16:15.064Z,100550.50
2023-03-08T11:19:00.614Z,100548.13
2023-03-08T11:21:49.930Z,100546.97
2023-03-08T11:24:28.354Z,100543.09
2023-03-08T11:27:21.370Z,100540.50
2023-03-08T11:30:12.849Z,100543.69
2023-03-08T11:33:04.177Z,100525.31
2023-03-08T11:35:54.975Z,100515.88
2023-03-08T11:38:21.954Z,100512.44
2023-03-08T11:41:14.902Z,100491.97
2023-03-08T11:43:48.104Z,100486.78
2023-03-08T11:46:52.732Z,100490.47
2023-03-08T11:49:44.368Z,100487.56
2023-03-08T11:52:49.795Z,100480.06
2023-03-08T11:55:20.910Z,100489.84
2023-03-08T11:58:16.595Z,100498.75
2023-03-08T12:00:46.112Z,100485.84
2023-03-08T12:03:31.170Z,100475.53
2023-03-08T12:06:03.793Z,100487.59
2023-03-08T12:08:57.777Z,100471.72
2023-03-08T12:11:31.465Z,100483.66
2023-03-08T12:14:30.422Z,100482.34
2023-03-08T12:17:07.509Z,100477.16
2023-03-08T12:19:46.723Z,100474.63
2023-03-08T12:22:19.347Z,100480.97
2023-03-08T12:24:57.232Z,100471.25
2023-03-08T12:27:39.169Z,100473.19
2023-03-08T12:30:15.275Z,100466.94
2023-03-08T12:32:43.686Z,100473.63
2023-03-08T12:35:22.993Z,100469.06
2023-03-08T12:37:58.705Z,100458.59
2023-03-08T12:40:39.756Z,100472.88
2023-03-08T12:43:31.540Z,100451.69
2023-03-08T12:46:01.661Z,100458.84
2023-03-08T12:48:44.616Z,100453.63
2023-03-08T12:51:14.958Z,100452.16
2023-03-08T12:53:51.114Z,100442.72
2023-03-08T12:56:20.840Z,100439.78
2023-03-08T12:58:55.348Z,100440.00
2023-03-08T13:01:39.136Z,100435.38
2023-03-08T13:04:39.360Z,100425.31
2023-03-08T13:07:22.411Z,100419.22
2023-03-08T13:09:55.323Z,100419.25
2023-03-08T13:12:25.377Z,100418.41
2023-03-08T13:15:11.271Z,100415.69
2023-03-08T13:17:50.549Z,100404.56
2023-03-08T13:20:29.768Z,100406.06
2023-03-08T13:23:07.881Z,100399.31
2023-03-08T13:25:43.898Z,100400.38
2023-03-08T13:28:14.974Z,100396.56
2023-03-08T13:30:52.128Z,100398.66
2023-03-08T13:33:30.709Z,100401.84
2023-03-08T13:36:16.876Z,100389.91
2023-03-08T13:38:43.991Z,100395.34
2023-03-08T13:41:10.885Z,100404.16
2023-03-08T13:43:37.773Z,100397.03
2023-03-08T13:46:10.879Z,100405.41
2023-03-08T13:48:38.014Z,100385.28
2023-03-08T13:51:05.186Z,100395.34
2023-03-08T13:53:35.685Z,100395.34
2023-03-08T13:56:05.850Z,100394.91
2023-03-08T13:58:40.389Z,100390.72
2023-03-08T14:01:13.956Z,100386.75
2023-03-08T14:03:42.367Z,100391.56
2023-03-08T14:06:30.318Z,100386.53
2023-03-08T14:09:04.746Z,100384.66
2023-03-08T14:11:33.124Z,100387.59
2023-03-08T14:14:02.641Z,100383.19
2023-03-08T14:16:32.143Z,100383.63
2023-03-08T14:19:00.687Z,100382.34
2023-03-08T14:21:30.183Z,100384.03
2023-03-08T14:23:59.950Z,100398.09
2023-03-08T14:26:31.759Z,100387.16
2023-03-08T14:29:22.147Z,100405.38
2023-03-08T14:32:12.422Z,100404.09
2023-03-08T14:34:41.893Z,100394.47
2023-03-08T14:37:11.489Z,100397.38
2023-03-08T14:39:49.883Z,100395.72
2023-03-08T14:42:25.608Z,100392.75
2023-03-08T14:44:52.700Z,100393.19
2023-03-08T14:47:31.690Z,100393.19
2023-03-08T14:50:24.153Z,100388.97
2023-03-08T14:52:54.435Z,100395.69
2023-03-08T14:55:24.155Z,100400.69
2023-03-08T14:57:54.049Z,100388.53
2023-03-08T15:00:22.325Z,100381.81
2023-03-08T15:02:49.567Z,100390.00
2023-03-08T15:05:28.808Z,100381.19
2023-03-08T15:07:59.448Z,100383.06
2023-03-08T15:10:32.054Z,100376.28
2023-03-08T15:12:59.626Z,100379.63
2023-03-08T15:15:27.046Z,100378.16
2023-03-08T15:17:53.915Z,100383.59
2023-03-08T15:20:22.439Z,100383.59
2023-03-08T15:22:52.946Z,100385.06
2023-03-08T15:25:25.141Z,100386.28
2023-03-08T15:27:52.218Z,100383.34
2023-03-08T15:30:23.200Z,100386.44
2023-03-08T15:32:50.425Z,100382.88
2023-03-08T15:35:18.672Z,100381.19
2023-03-08T15:37:46.416Z,100389.09
2023-03-08T15:40:21.284Z,100391.81
2023-03-08T15:42:51.877Z,100389.53
2023-03-08T15:45:18.979Z,100388.44
2023-03-08T15:47:56.607Z,100383.19
2023-03-08T15:50:24.012Z,100381.25
2023-03-08T15:52:50.914Z,100379.38
2023-03-08T15:55:18.207Z,100382.72
2023-03-08T15:57:45.107Z,100376.00
2023-03-08T16:00:14.419Z,100365.50
2023-03-08T16:02:41.322Z,100378.44
2023-03-08T16:05:10.093Z,100373.00
2023-03-08T16:07:37.344Z,100379.25
2023-03-08T16:10:06.611Z,100392.63
2023-03-08T16:12:33.568Z,100377.47
2023-03-08T16:15:00.658Z,100386.19
2023-03-08T16:17:30.409Z,100378.56
2023-03-08T16:19:57.501Z,100383.91
2023-03-08T16:22:24.393Z,100386.38
2023-03-08T16:24:51.358Z,100389.66
2023-03-08T16:27:18.562Z,100396.78
2023-03-08T16:29:45.612Z,100398.00
2023-03-08T16:32:15.495Z,100403.81
2023-03-08T16:34:42.411Z,100403.56
2023-03-08T16:37:09.263Z,100399.16
2023-03-08T16:39:36.207Z,100399.06
2023-03-08T16:42:03.190Z,100400.31
2023-03-08T16:44:30.613Z,100395.47
2023-03-08T16:46:57.607Z,100397.72
2023-03-08T16:49:28.475Z,100396.03
2023-03-08T16:51:56.320Z,100394.75
2023-03-08T16:54:23.804Z,100403.41
2023-03-08T16:56:50.877Z,100409.97
2023-03-08T16:59:18.145Z,100404.84
2023-03-08T17:01:47.487Z,100408.97
2023-03-08T17:04:14.596Z,100413.84
2023-03-08T17:06:44.449Z,100419.84
2023-03-08T17:09:12.080Z,100417.31
2023-03-08T17:11:39.413Z,100426.13
2023-03-08T17:14:09.194Z,100419.28
2023-03-08T17:16:36.793Z,100427.53
2023-03-08T17:19:05.868Z,100420.84
2023-03-08T17:21:38.210Z,100419.09
2023-03-08T17:24:12.174Z,100418.41
2023-03-08T17:26:45.897Z,100417.63
2023-03-08T17:29:13.448Z,100419.56
2023-03-08T17:31:41.049Z,100418.72
2023-03-08T17:34:08.195Z,100426.09
2023-03-08T17:36:35.212Z,100417.31
2023-03-08T17:39:02.515Z,100419.72
2023-03-08T17:41:29.535Z,100433.81
2023-03-08T17:43:56.478Z,100436.22
2023-03-08T17:46:25.255Z,100430.31
2023-03-08T17:48:53.327Z,100446.09
2023-03-08T17:51:26.350Z,100446.44
2023-03-08T17:53:53.935Z,100447.53
2023-03-08T17:56:26.799Z,100444.16
2023-03-08T17:58:55.874Z,100441.16
2023-03-08T18:01:25.384Z,100445.25
2023-03-08T18:03:55.528Z,100438.16
2023-03-08T18:06:27.940Z,100451.69
2023-03-08T18:08:56.548Z,100449.31
2023-03-08T18:11:24.535Z,100458.47
2023-03-08T18:13:51.785Z,100464.59
2023-03-08T18:16:20.529Z,100459.69
2023-03-08T18:18:49.884Z,100455.47
2023-03-08T18:21:18.419Z,100471.03
2023-03-08T18:23:46.697Z,100459.59
2023-03-08T18:26:15.586Z,100465.84
2023-03-08T18:28:42.772Z,100464.69
2023-03-08T18:31:18.875Z,100472.13
2023-03-08T18:33:46.250Z,100478.56
2023-03-08T18:36:13.418Z,100485.22
2023-03-08T18:38:40.408Z,100488.41
2023-03-08T18:41:18.881Z,100480.97
2023-03-08T18:43:46.923Z,100485.72
2023-03-08T18:46:14.786Z,100489.81
2023-03-08T18:48:42.000Z,100488.13
2023-03-08T18:51:09.654Z,100489.81
2023-03-08T18:53:37.224Z,100482.03
2023-03-08T18:56:04.862Z,100481.00
2023-03-08T18:58:32.315Z,100474.97
2023-03-08T19:01:00.566Z,100484.78
2023-03-08T19:03:28.513Z,100490.34
2023-03-08T19:05:56.164Z,100495.94
2023-03-08T19:08:23.595Z,100490.69
2023-03-08T19:10:50.436Z,100495.25
2023-03-08T19:13:17.362Z,100509.47
2023-03-08T19:15:44.221Z,100516.88
2023-03-08T19:18:11.186Z,100514.34
2023-03-08T19:20:40.517Z,100511.63
2023-03-08T19:23:09.310Z,100504.06
2023-03-08T19:25:58.245Z,100510.47
2023-03-08T19:28:25.173Z,100515.53
2023-03-08T19:30:52.178Z,100511.84
2023-03-08T19:33:30.467Z,100508.44
2023-03-08T19:35:59.021Z,100508.59
2023-03-08T19:38:25.978Z,100505.06
2023-03-08T19:40:52.841Z,100512.16
2023-03-08T19:43:19.767Z,100509.28
2023-03-08T19:45:49.927Z,100508.44
2023-03-08T19:48:16.914Z,100517.56
2023-03-08T19:50:47.059Z,100512.16
2023-03-08T19:53:14.510Z,100516.06
2023-03-08T19:55:59.353Z,100513.16
2023-03-08T19:58:26.272Z,100522.47
2023-03-08T20:01:06.184Z,100525.53
2023-03-08T20:03:33.101Z,100523.34
2023-03-08T20:05:59.990Z,100525.22
2023-03-08T20:08:26.984Z,100520.28
2023-03-08T20:10:54.018Z,100516.72
2023-03-08T20:13:20.954Z,100521.28
2023-03-08T20:15:47.814Z,100517.91
2023-03-08T20:18:15.107Z,100525.34
2023-03-08T20:20:42.045Z,100531.59
2023-03-08T20:23:09.003Z,100549.84
2023-03-08T20:25:36.116Z,100548.81
2023-03-08T20:28:03.399Z,100558.97
2023-03-08T20:30:30.517Z,100546.63
2023-03-08T20:32:57.922Z,100537.84
2023-03-08T20:35:24.921Z,100543.25
2023-03-08T20:37:51.873Z,100536.50
2023-03-08T20:40:21.150Z,100526.88
2023-03-08T20:42:48.253Z,100530.09
2023-03-08T20:45:15.945Z,100533.28
2023-03-08T20:47:43.884Z,100538.19
2023-03-08T20:50:11.537Z,100540.22
2023-03-08T20:52:38.455Z,100535.16
2023-03-08T20:55:06.034Z,100528.22
2023-03-08T20:57:33.105Z,100534.13
2023-03-08T21:00:00.005Z,100525.03
2023-03-08T21:02:27.218Z,100531.41
2023-03-08T21:04:57.121Z,100531.78
2023-03-08T21:07:24.069Z,100541.19
2023-03-08T21:09:51.008Z,100540.38
2023-03-08T21:12:18.272Z,100533.78
2023-03-08T21:14:45.207Z,100544.56
2023-03-08T21:17:12.319Z,100540.19
2023-03-08T21:19:39.561Z,100540.53
2023-03-08T21:22:07.337Z,100539.66
2023-03-08T21:24:34.207Z,100538.81
2023-03-08T21:27:01.181Z,100528.34
2023-03-08T21:29:29.112Z,100528.34
2023-03-08T21:31:56.641Z,100526.94
2023-03-08T21:34:23.944Z,100516.84
2023-03-08T21:36:51.081Z,100519.53
2023-03-08T21:39:18.396Z,100520.84
2023-03-08T21:41:47.438Z,100515.81
2023-03-08T21:44:17.084Z,100529.63
2023-03-08T21:46:44.707Z,100530.44
2023-03-08T21:49:17.840Z,100529.06
2023-03-08T21:51:45.328Z,100527.91
2023-03-08T21:54:12.408Z,100533.31
2023-03-08T21:56:40.094Z,100529.91
2023-03-08T21:59:07.410Z,100527.22
2023-03-08T22:01:34.650Z,100525.50
2023-03-08T22:04:03.414Z,100530.75
2023-03-08T22:06:30.913Z,100530.56
2023-03-08T22:08:58.420Z,100524.88
2023-03-08T22:11:27.398Z,100531.94
2023-03-08T22:13:57.345Z,100531.75
2023-03-08T22:16:26.078Z,100533.59
2023-03-08T22:18:55.263Z,100536.59
2023-03-08T22:21:22.380Z,100542.16
2023-03-08T22:23:53.258Z,100545.00
2023-03-08T22:26:21.228Z,100545.31
2023-03-08T22:28:48.587Z,100547.34
2023-03-08T22:31:18.080Z,100549.88
2023-03-08T22:33:45.045Z,100540.09
2023-03-08T22:36:14.323Z,100549.03
2023-03-08T22:38:42.008Z,100547.19
2023-03-08T22:41:18.189Z,100545.00
2023-03-08T22:43:46.158Z,100553.41
2023-03-08T22:46:18.872Z,100545.00
2023-03-08T22:48:47.231Z,100538.91
2023-03-08T22:51:15.409Z,100545.00
2023-03-08T22:53:42.402Z,100537.22
2023-03-08T22:56:22.523Z,100523.44
2023-03-08T22:58:50.242Z,100522.38
2023-03-08T23:01:20.812Z,100536.03
2023-03-08T23:03:50.197Z,100551.03
2023-03-08T23:06:18.654Z,100549.88
2023-03-08T23:08:46.023Z,100551.03
2023-03-08T23:11:13.628Z,100552.03
2023-03-08T23:13:41.445Z,100548.19
2023-03-08T23:16:11.544Z,100547.34
2023-03-08T23:18:38.758Z,100540.25
2023-03-08T23:21:08.138Z,100534.84
2023-03-08T23:23:36.240Z,100532.16
2023-03-08T23:26:05.521Z,100534.84
2023-03-08T23:28:35.618Z,100532.88
2023-03-08T23:31:08.969Z,100530.16
2023-03-08T23:33:35.974Z,100531.16
2023-03-08T23:36:03.151Z,100529.13
2023-03-08T23:38:30.097Z,100541.31
2023-03-08T23:40:57.034Z,100525.13
2023-03-08T23:43:23.954Z,100524.09
2023-03-08T23:45:50.945Z,100521.41
2023-03-08T23:48:17.946Z,100529.69
2023-03-08T23:50:44.779Z,100524.09
2023-03-08T23:53:11.645Z,100526.97
2023-03-08T23:55:40.276Z,100520.41
2023-03-08T23:58:08.068Z,100514.00
